createdAt,value
2017-10-31T00:01:51.094Z,18.40
2017-10-31T00:04:18.690Z,18.73
2017-10-31T00:06:46.323Z,12.67
2017-10-31T00:09:13.919Z,13.70
2017-10-31T00:11:41.521Z,16.57
2017-10-31T00:14:09.118Z,12.20
2017-10-31T00:16:36.717Z,13.53
2017-10-31T00:19:04.293Z,16.20
2017-10-31T00:21:32.256Z,20.03
2017-10-31T00:23:59.950Z,15.67
2017-10-31T00:26:27.742Z,14.47
2017-10-31T00:28:55.564Z,15.77
2017-10-31T00:31:23.202Z,16.70
2017-10-31T00:33:50.920Z,16.40
2017-10-31T00:36:18.780Z,15.90
2017-10-31T00:38:48.208Z,13.70
2017-10-31T00:41:15.797Z,14.20
2017-10-31T00:43:43.384Z,16.67
2017-10-31T00:46:10.931Z,13.30
2017-10-31T00:48:38.503Z,22.87
2017-10-31T00:51:06.239Z,13.83
2017-10-31T00:53:33.809Z,20.53
2017-10-31T00:56:01.414Z,13.70
2017-10-31T00:58:28.987Z,13.47
2017-10-31T01:00:58.558Z,14.40
2017-10-31T01:03:26.121Z,15.90
2017-10-31T01:05:54.082Z,10.10
2017-10-31T01:08:22.483Z,12.63
2017-10-31T01:10:51.391Z,14.70
2017-10-31T01:13:18.989Z,14.87
2017-10-31T01:15:46.579Z,12.93
2017-10-31T01:18:14.153Z,11.03
2017-10-31T01:20:41.723Z,13.37
2017-10-31T01:23:09.313Z,17.00
2017-10-31T01:25:36.922Z,15.07
2017-10-31T01:28:04.499Z,13.90
2017-10-31T01:30:32.069Z,11.90
2017-10-31T01:32:59.651Z,14.03
2017-10-31T01:35:27.287Z,15.73
2017-10-31T01:37:54.991Z,11.23
2017-10-31T01:40:22.565Z,14.30
2017-10-31T01:42:50.151Z,13.23
2017-10-31T01:45:17.717Z,14.70
2017-10-31T01:47:45.315Z,16.60
2017-10-31T01:50:12.893Z,16.87
2017-10-31T01:52:40.471Z,14.83
2017-10-31T01:55:08.044Z,19.03
2017-10-31T01:57:35.647Z,17.07
2017-10-31T02:00:03.378Z,12.97
2017-10-31T02:02:31.002Z,16.07
2017-10-31T02:04:58.601Z,15.83
2017-10-31T02:07:26.243Z,12.27
2017-10-31T02:09:53.797Z,9.90
2017-10-31T02:12:21.393Z,12.67
2017-10-31T02:14:48.969Z,16.83
2017-10-31T02:17:17.958Z,18.93
2017-10-31T02:19:45.554Z,16.33
2017-10-31T02:22:13.784Z,17.40
2017-10-31T02:24:41.397Z,14.10
2017-10-31T02:27:09.001Z,11.13
2017-10-31T02:29:36.569Z,15.70
2017-10-31T02:32:04.158Z,13.03
2017-10-31T02:34:31.730Z,15.00
2017-10-31T02:36:59.342Z,11.10
2017-10-31T02:39:26.915Z,15.53
2017-10-31T02:41:54.494Z,17.97
2017-10-31T02:44:22.125Z,13.03
2017-10-31T02:46:49.889Z,10.30
2017-10-31T02:49:17.421Z,16.60
2017-10-31T02:51:45.009Z,12.20
2017-10-31T02:54:12.620Z,13.30
2017-10-31T02:56:40.179Z,15.20
2017-10-31T02:59:07.762Z,8.00
2017-10-31T03:01:35.328Z,18.27
2017-10-31T03:04:02.914Z,11.50
2017-10-31T03:06:30.836Z,15.03
2017-10-31T03:08:58.418Z,14.23
2017-10-31T03:11:26.109Z,12.90
2017-10-31T03:13:53.703Z,16.83
2017-10-31T03:16:22.680Z,15.10
2017-10-31T03:18:50.260Z,9.00
2017-10-31T03:21:17.820Z,9.43
2017-10-31T03:23:45.409Z,7.80
2017-10-31T03:26:12.973Z,9.30
2017-10-31T03:28:40.563Z,12.87
2017-10-31T03:31:08.152Z,14.57
2017-10-31T03:33:35.748Z,12.00
2017-10-31T03:36:03.295Z,16.43
2017-10-31T03:38:30.899Z,13.67
2017-10-31T03:40:58.540Z,9.27
2017-10-31T03:43:26.498Z,16.37
2017-10-31T03:45:54.097Z,8.50
2017-10-31T03:48:21.682Z,9.90
2017-10-31T03:50:49.236Z,8.50
2017-10-31T03:53:16.822Z,13.23
2017-10-31T03:55:44.413Z,15.17
2017-10-31T03:58:12.368Z,10.93
2017-10-31T04:00:39.946Z,14.00
2017-10-31T04:03:07.500Z,9.77
2017-10-31T04:05:35.111Z,11.53
2017-10-31T04:08:02.661Z,13.03
2017-10-31T04:10:30.630Z,12.93
2017-10-31T04:12:58.187Z,20.10
2017-10-31T04:15:25.847Z,19.70
2017-10-31T04:17:53.393Z,13.73
2017-10-31T04:20:20.982Z,9.40
2017-10-31T04:22:48.534Z,10.30
2017-10-31T04:25:16.120Z,13.17
2017-10-31T04:27:43.692Z,14.00
2017-10-31T04:30:11.266Z,15.57
2017-10-31T04:32:39.268Z,12.67
2017-10-31T04:35:06.886Z,14.83
2017-10-31T04:37:34.447Z,13.97
2017-10-31T04:40:02.039Z,13.00
2017-10-31T04:42:29.646Z,9.17
2017-10-31T04:44:57.228Z,16.57
2017-10-31T04:47:24.807Z,9.40
2017-10-31T04:49:52.406Z,15.67
2017-10-31T04:52:19.972Z,16.83
2017-10-31T04:54:47.573Z,19.80
2017-10-31T04:57:15.135Z,11.63
2017-10-31T04:59:42.698Z,12.57
2017-10-31T05:02:10.364Z,10.20
2017-10-31T05:04:37.972Z,12.60
2017-10-31T05:07:05.929Z,10.00
2017-10-31T05:09:33.528Z,13.53
2017-10-31T05:12:01.121Z,14.60
2017-10-31T05:14:28.693Z,11.03
2017-10-31T05:16:56.320Z,11.27
2017-10-31T05:19:23.914Z,14.20
2017-10-31T05:21:51.497Z,10.03
2017-10-31T05:24:19.075Z,10.97
2017-10-31T05:26:46.706Z,17.70
2017-10-31T05:29:14.268Z,12.13
2017-10-31T05:31:42.293Z,12.33
2017-10-31T05:34:09.853Z,9.83
2017-10-31T05:36:37.452Z,10.97
2017-10-31T05:39:05.000Z,15.13
2017-10-31T05:41:32.588Z,10.73
2017-10-31T05:44:00.236Z,9.63
2017-10-31T05:46:27.807Z,8.90
2017-10-31T05:48:55.382Z,9.77
2017-10-31T05:51:22.978Z,13.93
2017-10-31T05:53:50.690Z,12.20
2017-10-31T05:56:18.276Z,9.07
2017-10-31T05:58:45.821Z,13.13
2017-10-31T06:01:13.411Z,13.27
2017-10-31T06:03:40.980Z,13.03
2017-10-31T06:06:08.617Z,12.50
2017-10-31T06:08:36.193Z,13.07
2017-10-31T06:11:03.766Z,13.00
2017-10-31T06:13:31.685Z,13.73
2017-10-31T06:15:59.243Z,10.90
2017-10-31T06:18:26.855Z,14.53
2017-10-31T06:20:54.408Z,15.13
2017-10-31T06:23:27.578Z,18.00
2017-10-31T06:26:00.659Z,13.93
2017-10-31T06:28:33.921Z,19.83
2017-10-31T06:31:07.055Z,16.93
2017-10-31T06:33:42.093Z,18.90
2017-10-31T06:36:09.647Z,12.87
2017-10-31T06:38:37.838Z,10.87
2017-10-31T06:41:06.430Z,10.73
2017-10-31T06:43:34.024Z,13.70
2017-10-31T06:46:01.623Z,8.90
2017-10-31T06:48:29.592Z,9.37
2017-10-31T06:50:57.186Z,12.07
2017-10-31T06:53:24.804Z,14.83
2017-10-31T06:55:52.383Z,13.17
2017-10-31T06:58:19.940Z,11.43
2017-10-31T07:00:47.541Z,19.30
2017-10-31T07:03:15.134Z,15.93
2017-10-31T07:05:42.722Z,19.50
2017-10-31T07:08:10.327Z,19.67
2017-10-31T07:10:37.916Z,18.57
2017-10-31T07:13:05.511Z,13.77
2017-10-31T07:15:33.077Z,17.47
2017-10-31T07:18:00.670Z,15.20
2017-10-31T07:20:28.236Z,16.70
2017-10-31T07:22:55.839Z,15.80
2017-10-31T07:25:23.421Z,15.87
2017-10-31T07:27:51.220Z,18.93
2017-10-31T07:30:18.809Z,17.97
2017-10-31T07:32:47.136Z,27.30
2017-10-31T07:35:14.752Z,19.13
2017-10-31T07:37:42.743Z,21.67
2017-10-31T07:40:10.355Z,14.30
2017-10-31T07:42:38.241Z,18.03
2017-10-31T07:45:05.958Z,13.70
2017-10-31T07:47:33.721Z,22.53
2017-10-31T07:50:01.681Z,15.57
2017-10-31T07:52:29.645Z,15.57
2017-10-31T07:54:57.243Z,18.47
2017-10-31T07:57:24.831Z,13.80
2017-10-31T07:59:52.645Z,15.50
2017-10-31T08:02:20.216Z,17.20
2017-10-31T08:04:47.835Z,20.20
2017-10-31T08:07:15.427Z,16.37
2017-10-31T08:09:43.850Z,22.67
2017-10-31T08:12:11.418Z,15.60
2017-10-31T08:14:41.156Z,18.03
2017-10-31T08:17:08.718Z,17.50
2017-10-31T08:19:36.291Z,15.93
2017-10-31T08:22:03.887Z,19.03
2017-10-31T08:24:31.879Z,18.07
2017-10-31T08:26:59.460Z,20.13
2017-10-31T08:29:27.062Z,20.13
2017-10-31T08:31:55.323Z,18.87
2017-10-31T08:34:22.912Z,27.80
2017-10-31T08:36:50.470Z,24.33
2017-10-31T08:39:18.119Z,18.70
2017-10-31T08:41:45.698Z,21.80
2017-10-31T08:44:13.366Z,22.00
2017-10-31T08:46:40.981Z,21.43
2017-10-31T08:49:08.577Z,19.60
2017-10-31T08:51:36.410Z,19.83
2017-10-31T08:54:03.982Z,21.43
2017-10-31T08:56:31.954Z,21.87
2017-10-31T08:59:00.469Z,21.90
2017-10-31T09:01:28.446Z,21.00
2017-10-31T09:03:56.048Z,23.37
2017-10-31T09:06:24.020Z,20.80
2017-10-31T09:08:51.612Z,23.13
2017-10-31T09:11:19.227Z,23.10
2017-10-31T09:13:47.250Z,26.60
2017-10-31T09:16:14.892Z,20.30
2017-10-31T09:18:42.840Z,26.40
2017-10-31T09:21:10.912Z,27.73
2017-10-31T09:23:38.911Z,28.67
2017-10-31T09:26:06.529Z,21.93
2017-10-31T09:28:34.096Z,22.80
2017-10-31T09:31:01.699Z,23.57
2017-10-31T09:33:29.688Z,23.70
2017-10-31T09:35:57.304Z,19.17
2017-10-31T09:38:24.922Z,23.70
2017-10-31T09:40:53.376Z,26.10
2017-10-31T09:43:21.304Z,23.30
2017-10-31T09:45:49.003Z,25.57
2017-10-31T09:48:16.590Z,26.30
2017-10-31T09:50:45.473Z,22.20
2017-10-31T09:53:13.522Z,18.30
2017-10-31T09:55:41.098Z,20.83
2017-10-31T09:58:08.721Z,27.47
2017-10-31T10:00:36.303Z,20.37
2017-10-31T10:03:03.907Z,20.37
2017-10-31T10:05:31.958Z,22.80
2017-10-31T10:07:59.571Z,21.23
2017-10-31T10:10:27.755Z,20.13
2017-10-31T10:12:55.715Z,22.37
2017-10-31T10:15:23.298Z,19.43
2017-10-31T10:17:50.897Z,17.90
2017-10-31T10:20:18.501Z,27.27
2017-10-31T10:22:48.845Z,18.03
2017-10-31T10:25:16.444Z,19.80
2017-10-31T10:27:44.602Z,21.70
2017-10-31T10:30:12.198Z,17.10
2017-10-31T10:32:40.178Z,16.30
2017-10-31T10:35:07.770Z,20.30
2017-10-31T10:37:35.442Z,19.23
2017-10-31T10:40:03.034Z,17.43
2017-10-31T10:42:31.046Z,11.83
2017-10-31T10:44:58.638Z,19.13
2017-10-31T10:47:26.271Z,13.07
2017-10-31T10:49:54.222Z,12.30
2017-10-31T10:52:21.950Z,19.00
2017-10-31T10:54:49.871Z,10.77
2017-10-31T10:57:18.269Z,12.63
2017-10-31T10:59:45.856Z,19.77
2017-10-31T11:02:14.324Z,13.60
2017-10-31T11:04:42.464Z,15.30
2017-10-31T11:07:10.838Z,15.13
2017-10-31T11:09:38.466Z,15.73
2017-10-31T11:12:06.053Z,16.90
2017-10-31T11:14:34.903Z,15.77
2017-10-31T11:17:02.830Z,16.13
2017-10-31T11:19:30.421Z,19.23
2017-10-31T11:22:00.768Z,13.23
2017-10-31T11:24:28.381Z,11.77
2017-10-31T11:26:56.318Z,16.20
2017-10-31T11:29:23.915Z,13.00
2017-10-31T11:31:51.534Z,11.53
2017-10-31T11:34:19.519Z,12.60
2017-10-31T11:36:47.522Z,11.87
2017-10-31T11:39:15.081Z,12.33
2017-10-31T11:41:42.679Z,9.53
2017-10-31T11:44:10.261Z,14.43
2017-10-31T11:46:37.872Z,9.20
2017-10-31T11:49:05.800Z,20.97
2017-10-31T11:51:33.417Z,10.70
2017-10-31T11:54:02.409Z,13.33
2017-10-31T11:56:30.235Z,21.50
2017-10-31T11:58:57.826Z,21.83
2017-10-31T12:01:25.803Z,13.37
2017-10-31T12:03:53.400Z,11.93
2017-10-31T12:06:21.474Z,9.47
2017-10-31T12:08:49.654Z,8.07
2017-10-31T12:11:17.298Z,9.50
2017-10-31T12:13:44.859Z,6.90
2017-10-31T12:16:12.865Z,8.57
2017-10-31T12:18:40.427Z,10.17
2017-10-31T12:21:07.988Z,8.87
2017-10-31T12:23:35.624Z,11.80
2017-10-31T12:26:03.988Z,9.20
2017-10-31T12:28:31.577Z,7.60
2017-10-31T12:30:59.171Z,7.33
2017-10-31T12:33:26.801Z,12.83
2017-10-31T12:35:54.368Z,10.07
2017-10-31T12:38:21.993Z,11.10
2017-10-31T12:40:49.598Z,8.27
2017-10-31T12:43:17.195Z,7.93
2017-10-31T12:45:44.911Z,9.17
2017-10-31T12:48:12.996Z,8.00
2017-10-31T12:50:40.598Z,6.43
2017-10-31T12:53:08.219Z,8.77
2017-10-31T12:55:36.075Z,11.23
2017-10-31T12:58:03.705Z,8.00
2017-10-31T13:00:31.291Z,9.00
2017-10-31T13:02:58.911Z,10.43
2017-10-31T13:05:26.629Z,6.73
2017-10-31T13:07:54.768Z,8.37
2017-10-31T13:10:22.351Z,9.30
2017-10-31T13:12:50.706Z,8.80
2017-10-31T13:15:18.297Z,7.67
2017-10-31T13:17:45.887Z,11.17
2017-10-31T13:20:13.895Z,9.63
2017-10-31T13:22:41.477Z,12.50
2017-10-31T13:25:09.053Z,10.20
2017-10-31T13:27:37.467Z,6.83
2017-10-31T13:30:06.241Z,13.50
2017-10-31T13:32:34.634Z,8.90
2017-10-31T13:35:03.020Z,12.30
2017-10-31T13:37:31.639Z,6.90
2017-10-31T13:39:59.977Z,8.67
2017-10-31T13:42:29.297Z,13.90
2017-10-31T13:44:57.961Z,8.80
2017-10-31T13:47:26.985Z,11.83
2017-10-31T13:49:55.682Z,12.33
2017-10-31T13:52:23.971Z,10.20
2017-10-31T13:54:51.582Z,11.23
2017-10-31T13:57:19.181Z,14.03
2017-10-31T13:59:46.818Z,14.00
2017-10-31T14:02:15.293Z,13.47
2017-10-31T14:04:59.762Z,8.87
2017-10-31T14:07:28.310Z,8.90
2017-10-31T14:09:56.750Z,10.73
2017-10-31T14:12:26.125Z,14.03
2017-10-31T14:14:55.148Z,10.20
2017-10-31T14:17:22.728Z,9.30
2017-10-31T14:19:51.024Z,10.43
2017-10-31T14:22:18.621Z,9.20
2017-10-31T14:24:46.185Z,10.90
2017-10-31T14:27:14.133Z,9.43
2017-10-31T14:29:41.793Z,4.90
2017-10-31T14:32:09.403Z,11.73
2017-10-31T14:34:37.700Z,6.40
2017-10-31T14:37:05.296Z,9.47
2017-10-31T14:39:32.880Z,7.60
2017-10-31T14:42:00.919Z,8.60
2017-10-31T14:44:28.829Z,7.20
2017-10-31T14:46:56.396Z,6.50
2017-10-31T14:49:24.000Z,8.30
2017-10-31T14:51:52.036Z,6.77
2017-10-31T14:54:19.635Z,9.90
2017-10-31T14:56:47.397Z,11.23
2017-10-31T14:59:14.993Z,6.87
2017-10-31T15:01:42.557Z,6.80
2017-10-31T15:04:10.196Z,10.80
2017-10-31T15:06:37.770Z,9.27
2017-10-31T15:09:05.340Z,6.27
2017-10-31T15:11:32.940Z,6.80
2017-10-31T15:14:00.547Z,6.03
2017-10-31T15:16:28.142Z,7.27
2017-10-31T15:18:55.748Z,8.37
2017-10-31T15:21:23.318Z,7.60
2017-10-31T15:23:50.945Z,14.07
2017-10-31T15:26:18.541Z,10.13
2017-10-31T15:28:46.136Z,10.20
2017-10-31T15:31:14.080Z,10.40
2017-10-31T15:33:41.681Z,9.03
2017-10-31T15:36:09.348Z,11.23
2017-10-31T15:38:36.936Z,8.80
2017-10-31T15:41:04.514Z,10.63
2017-10-31T15:43:32.143Z,13.50
2017-10-31T15:45:59.718Z,8.40
2017-10-31T15:48:27.280Z,6.17
2017-10-31T15:50:54.881Z,7.43
2017-10-31T15:53:23.207Z,10.27
2017-10-31T15:55:50.812Z,5.67
2017-10-31T15:58:18.410Z,9.50
2017-10-31T16:00:46.012Z,8.20
2017-10-31T16:03:13.613Z,11.93
2017-10-31T16:05:41.214Z,9.60
2017-10-31T16:08:09.660Z,9.10
2017-10-31T16:10:37.238Z,12.80
2017-10-31T16:13:04.808Z,10.97
2017-10-31T16:15:32.581Z,12.07
2017-10-31T16:18:00.180Z,11.27
2017-10-31T16:20:27.796Z,12.40
2017-10-31T16:22:55.398Z,15.30
2017-10-31T16:25:22.997Z,15.33
2017-10-31T16:27:50.578Z,11.47
2017-10-31T16:30:18.186Z,8.87
2017-10-31T16:32:45.780Z,11.77
2017-10-31T16:35:13.505Z,16.87
2017-10-31T16:37:41.072Z,12.77
2017-10-31T16:40:08.653Z,14.50
2017-10-31T16:42:37.004Z,13.10
2017-10-31T16:45:04.679Z,15.20
2017-10-31T16:47:32.287Z,11.20
2017-10-31T16:49:59.885Z,14.60
2017-10-31T16:52:27.497Z,12.77
2017-10-31T16:54:55.090Z,19.80
2017-10-31T16:57:22.683Z,13.23
2017-10-31T16:59:50.680Z,15.40
2017-10-31T17:02:18.459Z,14.73
2017-10-31T17:04:46.121Z,18.93
2017-10-31T17:07:13.738Z,18.10
2017-10-31T17:09:41.345Z,20.67
2017-10-31T17:12:09.475Z,17.23
2017-10-31T17:14:37.095Z,14.87
2017-10-31T17:17:04.701Z,16.87
2017-10-31T17:19:32.299Z,15.57
2017-10-31T17:21:59.918Z,16.83
2017-10-31T17:24:27.493Z,17.07
2017-10-31T17:26:56.494Z,16.40
2017-10-31T17:29:27.248Z,21.90
2017-10-31T17:31:55.284Z,18.33
2017-10-31T17:34:22.905Z,16.23
2017-10-31T17:36:50.592Z,18.57
2017-10-31T17:39:19.450Z,20.23
2017-10-31T17:41:49.402Z,18.83
2017-10-31T17:44:17.548Z,15.80
2017-10-31T17:46:45.156Z,23.03
2017-10-31T17:49:13.255Z,15.50
2017-10-31T17:51:41.678Z,17.40
2017-10-31T17:54:09.279Z,20.93
2017-10-31T17:56:38.313Z,14.77
2017-10-31T17:59:06.063Z,17.37
2017-10-31T18:01:33.727Z,14.47
2017-10-31T18:04:01.324Z,16.43
2017-10-31T18:06:30.179Z,18.80
2017-10-31T18:08:58.539Z,15.87
2017-10-31T18:11:28.963Z,17.47
2017-10-31T18:13:56.892Z,16.63
2017-10-31T18:16:24.926Z,14.57
2017-10-31T18:18:54.056Z,17.00
2017-10-31T18:21:22.570Z,19.80
2017-10-31T18:23:50.608Z,18.30
2017-10-31T18:26:18.564Z,18.93
2017-10-31T18:28:46.592Z,16.20
2017-10-31T18:31:14.243Z,16.50
2017-10-31T18:33:41.927Z,17.03
2017-10-31T18:36:09.697Z,15.50
2017-10-31T18:38:38.617Z,18.63
2017-10-31T18:41:06.259Z,9.73
2017-10-31T18:43:34.396Z,14.67
2017-10-31T18:46:02.405Z,15.33
2017-10-31T18:48:29.976Z,14.27
2017-10-31T18:50:57.905Z,20.77
2017-10-31T18:53:25.886Z,14.53
2017-10-31T18:55:53.469Z,12.40
2017-10-31T18:58:21.206Z,17.93
2017-10-31T19:00:49.864Z,14.20
2017-10-31T19:03:17.514Z,14.50
2017-10-31T19:05:45.231Z,19.13
2017-10-31T19:08:14.236Z,18.73
2017-10-31T19:10:41.949Z,17.33
2017-10-31T19:13:09.691Z,20.20
2017-10-31T19:15:37.753Z,18.73
2017-10-31T19:18:06.843Z,19.00
2017-10-31T19:20:34.540Z,17.37
2017-10-31T19:23:02.211Z,19.27
2017-10-31T19:25:30.145Z,17.00
2017-10-31T19:27:59.310Z,20.00
2017-10-31T19:30:27.080Z,18.23
2017-10-31T19:32:54.796Z,15.17
2017-10-31T19:35:22.900Z,25.67
2017-10-31T19:37:50.779Z,21.97
2017-10-31T19:40:18.747Z,21.17
2017-10-31T19:42:46.468Z,20.33
2017-10-31T19:45:14.353Z,23.40
2017-10-31T19:47:44.147Z,27.53
2017-10-31T19:50:13.079Z,20.13
2017-10-31T19:52:40.933Z,21.80
2017-10-31T19:55:09.210Z,25.50
2017-10-31T19:57:37.806Z,21.27
2017-10-31T20:00:06.601Z,28.53
2017-10-31T20:02:36.805Z,30.23
2017-10-31T20:05:04.889Z,28.33
2017-10-31T20:07:33.284Z,31.87
2017-10-31T20:10:02.166Z,33.17
2017-10-31T20:12:30.023Z,27.27
2017-10-31T20:14:59.434Z,28.33
2017-10-31T20:17:28.196Z,32.80
2017-10-31T20:19:56.188Z,22.67
2017-10-31T20:22:24.157Z,27.30
2017-10-31T20:24:52.155Z,22.43
2017-10-31T20:27:20.315Z,23.83
2017-10-31T20:42:53.391Z,36.90
2017-10-31T20:45:21.688Z,26.73
2017-10-31T20:47:49.731Z,25.10
2017-10-31T20:50:17.589Z,25.20
2017-10-31T20:52:45.905Z,26.13
2017-10-31T20:55:17.163Z,18.80
2017-10-31T20:57:45.433Z,16.23
2017-10-31T21:00:13.763Z,21.80
2017-10-31T21:02:43.218Z,22.73
2017-10-31T21:05:11.148Z,19.93
2017-10-31T21:07:39.803Z,21.33
2017-10-31T21:10:08.564Z,24.83
2017-10-31T21:12:38.696Z,21.73
2017-10-31T21:15:06.411Z,24.50
2017-10-31T21:17:36.535Z,20.80
2017-10-31T21:20:07.841Z,22.50
2017-10-31T21:22:42.236Z,24.50
2017-10-31T21:25:11.786Z,20.30
2017-10-31T21:27:39.906Z,21.27
2017-10-31T21:30:07.616Z,37.97
2017-10-31T21:32:36.583Z,28.57
2017-10-31T21:35:04.281Z,28.60
2017-10-31T21:37:32.315Z,29.10
2017-10-31T21:40:00.382Z,24.47
2017-10-31T21:42:29.269Z,28.30
2017-10-31T21:44:56.932Z,34.40
2017-10-31T21:47:24.605Z,24.43
2017-10-31T21:49:52.274Z,22.43
2017-10-31T21:52:20.520Z,23.17
2017-10-31T21:54:48.171Z,17.27
2017-10-31T21:57:15.766Z,18.60
2017-10-31T21:59:43.676Z,16.60
2017-10-31T22:02:12.662Z,13.77
2017-10-31T22:04:42.073Z,14.37
2017-10-31T22:07:09.668Z,15.47
2017-10-31T22:09:37.691Z,12.50
2017-10-31T22:12:05.887Z,17.23
2017-10-31T22:14:33.479Z,13.50
2017-10-31T22:17:01.520Z,11.70
2017-10-31T22:19:29.108Z,15.33
2017-10-31T22:21:57.177Z,14.97
2017-10-31T22:24:24.891Z,17.70
2017-10-31T22:26:52.500Z,17.50
2017-10-31T22:29:20.066Z,14.70
2017-10-31T22:31:47.712Z,14.17
2017-10-31T22:34:15.298Z,14.57
2017-10-31T22:36:42.909Z,13.33
2017-10-31T22:39:10.840Z,19.93
2017-10-31T22:41:38.453Z,14.30
2017-10-31T22:44:06.026Z,14.83
2017-10-31T22:46:34.146Z,11.90
2017-10-31T22:49:01.731Z,12.07
2017-10-31T22:51:29.646Z,14.97
2017-10-31T22:53:57.249Z,14.27
2017-10-31T22:56:24.823Z,12.50
2017-10-31T22:58:52.431Z,13.30
2017-10-31T23:01:20.000Z,17.97
2017-10-31T23:03:48.588Z,15.00
2017-10-31T23:06:16.144Z,14.60
2017-10-31T23:08:44.103Z,17.17
2017-10-31T23:11:11.734Z,12.20
2017-10-31T23:13:39.332Z,12.40
2017-10-31T23:16:07.332Z,12.90
2017-10-31T23:18:36.992Z,14.43
2017-10-31T23:21:04.612Z,21.27
2017-10-31T23:23:32.234Z,17.23
2017-10-31T23:25:59.798Z,11.97
2017-10-31T23:28:27.816Z,15.17
2017-10-31T23:30:55.385Z,13.77
2017-10-31T23:33:23.356Z,16.90
2017-10-31T23:35:51.300Z,21.13
2017-10-31T23:38:19.312Z,13.70
2017-10-31T23:40:47.226Z,14.57
2017-10-31T23:43:14.825Z,12.23
2017-10-31T23:45:42.404Z,13.30
2017-10-31T23:48:10.031Z,18.93
2017-10-31T23:50:37.599Z,17.00
2017-10-31T23:53:05.192Z,13.53
2017-10-31T23:55:32.766Z,14.37
2017-10-31T23:58:00.345Z,12.93
